Flight Track Log - Related Links

Times and Time Zones

All times are in EST time to prevent confusion due to time zone crossing. See the N269C flight status page for this flight to view local times or setup timezone preferences in your user account.

Time Position Orientation Groundspeed Altitude Reporting Facility
EST Latitude Longitude Course Direction KTS MPH feet Rate Location/Type
Thu 07:33:55 PM 46.0469 -118.3361 231° Southwest 150 173 3,000  Level Seattle Center
Thu 07:34:56 PM 46.0189 -118.3767 225° Southwest 148 170 4,000 984 Climbing Seattle Center
Thu 07:35:57 PM 45.9906 -118.4247 230° Southwest 157 181 5,000 984 Climbing Seattle Center
Thu 07:36:58 PM 45.9606 -118.4697 226° Southwest 157 181 6,000 934 Climbing Seattle Center
Thu 07:37:59 PM 45.9311 -118.5167 228° Southwest 159 183 6,900 934 Climbing Seattle Center
Thu 07:39:00 PM 45.8851 -118.6149 231° Southwest  Level Estimated
Thu 07:39:00 PM 45.9014 -118.5625 227° Southwest 161 185 7,900  Level Seattle Center
Thu 07:40:01 PM 45.8708 -118.6097 227° Southwest 163 188 8,800 934 Climbing Seattle Center
Thu 07:41:02 PM 45.8406 -118.6561 227° Southwest 161 185 9,800 984 Climbing Seattle Center
Thu 07:42:03 PM 45.8103 -118.7039 228° Southwest 162 186 10,800 984 Climbing Seattle Center
Thu 07:43:04 PM 45.7797 -118.7508 227° Southwest 162 186 11,800 934 Climbing Seattle Center
Thu 07:44:05 PM 45.7489 -118.7994 228° Southwest 164 189 12,700 1,033 Climbing Seattle Center
Thu 07:45:06 PM 45.7108 -118.8586 227° Southwest 169 194 13,900 1,024 Climbing Seattle Center
Thu 07:46:08 PM 45.6783 -118.9081 227° Southwest 170 196 14,800 878 Climbing Seattle Center
Thu 07:47:09 PM 45.6464 -118.9583 228° Southwest 171 197 15,700 836 Climbing Seattle Center
Thu 07:48:10 PM 45.6133 -119.0094 227° Southwest 176 203 16,500 787 Climbing Seattle Center
Thu 07:49:11 PM 45.5786 -119.0606 226° Southwest 179 206 17,300 689 Climbing Seattle Center
Thu 07:50:12 PM 45.5439 -119.1153 228° Southwest 185 213 17,900 197 Climbing Seattle Center
Thu 07:51:13 PM 45.5064 -119.1744 228° Southwest 200 230 17,700  Descending Seattle Center
Thu 07:52:14 PM 45.4672 -119.2367 228° Southwest 211 243 17,900 148 Climbing Seattle Center
Thu 07:53:15 PM 45.4269 -119.2933 225° Southwest 207 238 18,000 50 Climbing Seattle Center
Thu 07:54:15 PM 45.3892 -119.3497 226° Southwest 200 230 18,000  Level Seattle Center
Thu 07:55:17 PM 45.3519 -119.4058 227° Southwest 197 227 18,000  Level Seattle Center
Thu 07:56:18 PM 45.3142 -119.4628 227° Southwest 198 228 18,000  Level Seattle Center
Thu 07:57:19 PM 45.2681 -119.5314 226° Southwest 200 230 18,000  Level Seattle Center
Thu 07:58:20 PM 45.2306 -119.5886 227° Southwest 199 229 18,000  Level Seattle Center
Thu 07:59:20 PM 45.1928 -119.6450 226° Southwest 199 229 18,000  Level Seattle Center
Thu 08:00:22 PM 45.1550 -119.7011 226° Southwest 196 226 18,000  Level Seattle Center
Thu 08:01:23 PM 45.1172 -119.7578 227° Southwest 196 226 18,000  Level Seattle Center
Thu 08:02:24 PM 45.0792 -119.8139 226° Southwest 197 227 18,000  Level Seattle Center
Thu 08:03:25 PM 45.0411 -119.8703 226° Southwest 197 227 18,000  Level Seattle Center
Thu 08:04:26 PM 45.0017 -119.9272 226° Southwest 202 232 18,000  Level Seattle Center
Thu 08:05:27 PM 44.9644 -119.9814 226° Southwest 196 226 18,000  Level Seattle Center
Thu 08:06:28 PM 44.9225 -120.0456 227° Southwest 197 227 18,000  Level Seattle Center
Thu 08:07:29 PM 44.8842 -120.1019 226° Southwest 201 231 18,000  Level Seattle Center
Thu 08:08:30 PM 44.8464 -120.1578 226° Southwest 198 228 18,000  Level Seattle Center
Thu 08:09:31 PM 44.8078 -120.2147 226° Southwest 200 230 18,000  Level Seattle Center
Thu 08:10:32 PM 44.7692 -120.2711 226° Southwest 201 231 18,000  Level Seattle Center
Thu 08:11:33 PM 44.7308 -120.3272 226° Southwest 199 229 18,000  Level Seattle Center
Thu 08:12:34 PM 44.6925 -120.3833 226° Southwest 200 230 18,000  Level Seattle Center
Thu 08:13:35 PM 44.6539 -120.4403 226° Southwest 201 231 18,000  Level Seattle Center
Thu 08:14:36 PM 44.6108 -120.5025 226° Southwest 199 229 18,000  Level Seattle Center
Thu 08:15:37 PM 44.5725 -120.5589 226° Southwest 200 230 18,000  Level Seattle Center
Thu 08:16:38 PM 44.5339 -120.6133 225° Southwest 198 228 18,000  Level Seattle Center
Thu 08:17:39 PM 44.4950 -120.6697 226° Southwest 199 229 18,000  Level Seattle Center
Thu 08:18:40 PM 44.4564 -120.7253 226° Southwest 199 229 18,000  Level Seattle Center
Thu 08:19:41 PM 44.4175 -120.7811 226° Southwest 200 230 18,000  Level Seattle Center
Thu 08:20:42 PM 44.3792 -120.8356 225° Southwest 197 227 18,000  Level Seattle Center
Thu 08:21:43 PM 44.3408 -120.8900 225° Southwest 197 227 18,000  Level Seattle Center
Thu 08:22:44 PM 44.3019 -120.9450 225° Southwest 197 227 18,000  Level Seattle Center
Thu 08:23:45 PM 44.2628 -121.0011 226° Southwest 199 229 18,000  Level Seattle Center
Thu 08:24:46 PM 44.2231 -121.0572 225° Southwest 199 229 18,000  Level Seattle Center
Thu 08:25:47 PM 44.1842 -121.1139 226° Southwest 197 227 18,000  Level Seattle Center
Thu 08:26:48 PM 44.1453 -121.1686 225° Southwest 196 226 18,000  Level Seattle Center
Thu 08:27:49 PM 44.1056 -121.2231 225° Southwest 198 228 18,000  Level Seattle Center
Thu 08:28:50 PM 44.0675 -121.2778 226° Southwest 196 226 18,000  Level Seattle Center
Thu 08:29:51 PM 44.0292 -121.3314 225° Southwest 196 226 18,000  Level Seattle Center
Thu 08:30:52 PM 43.9836 -121.3958 226° Southwest 194 223 18,000  Level Seattle Center
Thu 08:31:53 PM 43.9453 -121.4500 226° Southwest 195 224 18,000  Level Seattle Center
Thu 08:32:54 PM 43.9075 -121.5025 225° Southwest 193 222 18,000  Level Seattle Center
Thu 08:33:54 PM 43.8683 -121.5553 224° Southwest 194 223 18,000  Level Seattle Center
Thu 08:34:55 PM 43.8308 -121.6100 226° Southwest 196 226 18,000  Level Seattle Center
Thu 08:35:56 PM 43.7919 -121.6622 224° Southwest 196 226 18,000 -98 Level Seattle Center
Thu 08:36:57 PM 43.7522 -121.7172 225° Southwest 200 230 17,800 -197 Descending Seattle Center
Thu 08:37:58 PM 43.7106 -121.7775 226° Southwest 214 246 17,600 -344 Descending Seattle Center
Thu 08:38:59 PM 43.6681 -121.8342 224° Southwest 213 245 17,100 -443 Descending Seattle Center
Thu 08:40:00 PM 43.6286 -121.8881 225° Southwest 213 245 16,700 -443 Descending Seattle Center
Thu 08:41:01 PM 43.5867 -121.9478 226° Southwest 216 249 16,200 -639 Descending Seattle Center
Thu 08:42:02 PM 43.5369 -122.0167 225° Southwest 212 244 15,400 -689 Descending Seattle Center
Thu 08:43:03 PM 43.4936 -122.0758 225° Southwest 217 250 14,800 -541 Descending Seattle Center
Thu 08:44:04 PM 43.4511 -122.1328 224° Southwest 213 245 14,300 -541 Descending Seattle Center
Thu 08:45:05 PM 43.4089 -122.1908 225° Southwest 213 245 13,700 -541 Descending Seattle Center
Thu 08:46:06 PM 43.3669 -122.2475 224° Southwest 210 242 13,200 -496 Descending Seattle Center
Thu 08:47:06 PM 43.3264 -122.3031 225° Southwest 207 238 12,700 -496 Descending Seattle Center
Thu 08:48:07 PM 43.2847 -122.3592 224° Southwest 206 237 12,200 -344 Descending Seattle Center
Thu 08:49:08 PM 43.2464 -122.4122 225° Southwest 204 235 12,000 -148 Descending Seattle Center
Thu 08:50:09 PM 43.2069 -122.4644 224° Southwest 199 229 11,900  Descending Seattle Center
Thu 08:51:10 PM 43.1708 -122.5136 225° Southwest 191 220 12,000 49 Climbing Seattle Center
Thu 08:52:11 PM 43.1333 -122.5614 223° Southwest 187 215 12,000  Level Seattle Center
Thu 08:53:12 PM 43.0964 -122.6119 225° Southwest 186 214 12,000  Level Seattle Center
Thu 08:54:12 PM 43.0603 -122.6589 224° Southwest 183 211 12,000  Level Seattle Center
Thu 08:55:13 PM 43.0231 -122.7108 226° Southwest 187 215 12,000  Level Seattle Center
Thu 08:56:14 PM 42.9844 -122.7644 225° Southwest 196 226 12,000 -197 Level Seattle Center
Thu 08:57:15 PM 42.9464 -122.8169 225° Southwest 196 226 11,600 -393 Descending Seattle Center
Thu 08:58:16 PM 42.9067 -122.8700 224° Southwest 202 232 11,200 -443 Descending Seattle Center
Thu 08:59:17 PM 42.8681 -122.9233 225° Southwest 201 231 10,700 -541 Descending Seattle Center
Thu 09:00:18 PM 42.8186 -122.9842 222° Southwest 201 231 10,100 -545 Descending Seattle Center
Thu 09:01:18 PM 42.7792 -123.0350 223° Southwest 196 226 9,600 -496 Descending Seattle Center
Thu 09:02:19 PM 42.7411 -123.0861 225° Southwest 192 221 9,100 -443 Descending Seattle Center
Thu 09:03:20 PM 42.7047 -123.1347 224° Southwest 195 224 8,700 -443 Descending Seattle Center
Thu 09:04:21 PM 42.6664 -123.1831 223° Southwest 191 220 8,200 -344 Descending Seattle Center
Thu 09:05:22 PM 42.6308 -123.2289 223° Southwest 190 219 8,000 -197 Descending Seattle Center

Login

Don't have an account? Register now (free) for customized features, flight alerts, and more!